Terminal Aerodrome Forecast
Issued by NWS

Home | Current Version | Previous Version | Text Only | Print | Product List | Glossary On
Versions: 1 2 3 4 5 6 7 8 9 10 11 12 13 14 15 16 17 18 19 20 21 22 23 24 25 26 27 28 29 30 31 32 33 34 35 36 37 38 39 40 41 42 43 44 45
428
FTUS43 KDVN 211501 AAC
TAFCID
TAF AMD
KCID 211501Z 2115/2212 09006KT 2SM -DZ BR OVC020
     FM211800 10005KT 1/2SM -DZ FG OVC007
     FM220100 09007KT 1SM -RA BR OVC008 PROB30 2206/2210 2SM SHRA BR
      OVC004=

USA.gov is the U.S. government's official web portal to all federal, state and local government web resources and services.